logo
Rechercher aéroport 
image banner adimage banner adimage banner ad
image banner ad

YHDY - Headingly

Situé à Piturie, Australia

ICAO - YHDY, IATA - HIP

Données fournies par Airmate  

Information générale

Coordonnées: S21°19'17" E138°17'46"
Élévation : 609 feet MSL.
Variation magnétique : 5° East
Voir autres Aéroports à Queensland

Données opérationnelles

Special qualification required
Heure actuelle UTC:
Heure actuelle locale:
Météo à : - ( 0 km )
METAR: CZPC 281151Z AUTO 27020G28KT 8SM -SN BKN210 OVC240 M04/M09 A2957 RMK SLP067
Voir NOTAMs / SUP AIP / TFR affectant cet aéroport [VIEW]
Fréquences de communication: [VIEW]

Pistes:

Identifiant RWYQFULongueur (ft)Largeur (ft)SurfaceLDA (ft)
26262°353641DIRT
0882°353641DIRT
17178°553234DIRT
35358°553234DIRT

Coordonnées de l'aéroport

Adresse: Piturie Australia

Vue satellite de YHDY